Codo, Brazil
Current Conditions -  °F | °C
As of 2:00 PM on Monday 24 Nov 2014 (Local Time) from SBTE Reporting Station
Scattered Clouds Scattered Clouds  
Wind Chill: 99°   Ceiling: Unl
Heat Index: 99°   Visibility: 6mi
Dew Point: 61°   Wind: 2mph
Humidity: 29%   Direction: 330°NNW
Pressure: 29.8"   Gusts: NA
Location:  4.46°S, 43.89°W
Report Text: SBTE 241700Z 33002KT 9999 SCT040 37/16 Q1009
Loading
Personal Weather Stations






























Interactive Weather Map New forecast layout! Learn more

10-Day Weather Forecast

Advertisements
Track Severe Weather on mobile